Time;durP1;ratioP1;P1;durP2;ratioP2;P2;SDS_P1;SDS_P2;PMS_P1;PMS_P2;Temp;Humidity;BMP_temperature;BMP_pressure;BME280_temperature;BME280_humidity;BME280_pressure;Samples;Min_cycle;Max_cycle;Signal;HPM_P1;HPM_P2
2023/09/12 00:00:36;;;;;;;17.05;14.77;;;;;;;;;;6264824;28;20059;-80
2023/09/12 00:03:44;;;;;;;16.95;14.00;;;;;;;;;;6264687;28;20051;-80
2023/09/12 00:06:46;;;;;;;15.93;13.13;;;;;;;;;;6275628;28;20119;-80
2023/09/12 00:09:49;;;;;;;21.52;14.82;;;;;;;;;;6275657;28;20106;-80
2023/09/12 00:12:51;;;;;;;22.17;15.95;;;;;;;;;;6274890;28;20226;-79
2023/09/12 00:15:54;;;;;;;18.63;14.32;;;;;;;;;;6277123;28;20067;-80
2023/09/12 00:18:56;;;;;;;18.70;14.83;;;;;;;;;;6268196;28;20237;-79
2023/09/12 00:26:31;;;;;;;18.70;13.60;;;;;;;;;;6256953;28;20053;-80
2023/09/12 00:29:39;;;;;;;17.55;14.05;;;;;;;;;;6273071;28;20064;-80
2023/09/12 00:32:41;;;;;;;16.98;14.00;;;;;;;;;;6299152;28;20052;-79
2023/09/12 00:35:44;;;;;;;17.93;14.20;;;;;;;;;;6301659;28;20060;-80
2023/09/12 00:38:58;;;;;;;19.48;13.27;;;;;;;;;;6300063;28;20462;-80
2023/09/12 00:42:01;;;;;;;18.77;14.13;;;;;;;;;;6300190;28;20117;-79
2023/09/12 00:45:05;;;;;;;19.38;14.55;;;;;;;;;;6302532;28;20256;-79
2023/09/12 00:48:08;;;;;;;17.40;13.93;;;;;;;;;;6288512;28;20052;-79
2023/09/12 00:51:11;;;;;;;19.67;14.18;;;;;;;;;;6297821;28;20056;-80
2023/09/12 00:54:13;;;;;;;19.48;14.55;;;;;;;;;;6300322;28;20048;-79
2023/09/12 00:57:25;;;;;;;23.85;14.13;;;;;;;;;;6269968;28;20041;-79
2023/09/12 01:00:30;;;;;;;19.67;13.93;;;;;;;;;;6272204;28;20047;-79
2023/09/12 01:03:32;;;;;;;21.95;14.80;;;;;;;;;;6277769;28;20131;-79
2023/09/12 01:06:38;;;;;;;16.60;14.03;;;;;;;;;;6271835;28;20040;-79
2023/09/12 01:09:41;;;;;;;18.13;14.52;;;;;;;;;;6270273;28;20380;-79
2023/09/12 01:12:45;;;;;;;21.10;14.88;;;;;;;;;;6274231;28;20131;-79
2023/09/12 01:15:47;;;;;;;23.45;14.43;;;;;;;;;;6275622;28;20057;-80
2023/09/12 01:18:49;;;;;;;24.17;15.40;;;;;;;;;;6278521;28;20125;-79
2023/09/12 01:22:17;;;;;;;27.50;15.60;;;;;;;;;;6275868;28;20049;-80
2023/09/12 01:25:36;;;;;;;23.50;15.30;;;;;;;;;;6278705;28;20108;-80
2023/09/12 01:28:42;;;;;;;25.98;15.23;;;;;;;;;;6282239;28;20048;-80
2023/09/12 01:31:46;;;;;;;25.05;16.23;;;;;;;;;;6300590;28;20347;-80
2023/09/12 01:34:48;;;;;;;23.15;15.40;;;;;;;;;;6277047;28;20360;-80
2023/09/12 01:37:53;;;;;;;24.42;15.55;;;;;;;;;;6277543;28;20068;-80
2023/09/12 01:40:56;;;;;;;21.73;16.30;;;;;;;;;;6270866;28;20087;-80
2023/09/12 01:44:00;;;;;;;22.63;16.52;;;;;;;;;;6276358;28;20075;-80
2023/09/12 01:47:04;;;;;;;18.23;15.88;;;;;;;;;;6286170;28;20037;-79
2023/09/12 01:50:08;;;;;;;24.98;17.10;;;;;;;;;;6263431;28;20072;-80
2023/09/12 01:53:23;;;;;;;20.10;16.95;;;;;;;;;;6256536;28;20060;-79
2023/09/12 01:56:25;;;;;;;19.90;16.58;;;;;;;;;;6279557;28;20069;-80
2023/09/12 01:59:39;;;;;;;;;;;;;;;;;;;;;
2023/09/12 02:02:43;;;;;;;24.98;20.45;;;;;;;;;;6272683;28;20113;-80
2023/09/12 02:05:45;;;;;;;25.27;19.90;;;;;;;;;;6290126;28;20060;-80
2023/09/12 02:08:47;;;;;;;25.45;21.08;;;;;;;;;;6282631;28;20076;-79
2023/09/12 02:11:50;;;;;;;27.05;20.98;;;;;;;;;;6304438;28;20359;-79
2023/09/12 02:14:53;;;;;;;27.02;20.95;;;;;;;;;;6307019;28;20119;-79
2023/09/12 02:17:55;;;;;;;26.40;20.85;;;;;;;;;;6305155;28;20248;-80
2023/09/12 02:20:57;;;;;;;27.90;20.15;;;;;;;;;;6306889;28;20052;-80
2023/09/12 02:23:58;;;;;;;26.45;21.15;;;;;;;;;;6287160;28;20059;-79
2023/09/12 02:27:17;;;;;;;;;;;;;;;;;;;;;
2023/09/12 02:30:35;;;;;;;27.67;21.33;;;;;;;;;;6279492;28;20267;-79
2023/09/12 02:33:43;;;;;;;26.13;22.80;;;;;;;;;;6289600;28;20044;-80
2023/09/12 02:36:45;;;;;;;27.92;23.20;;;;;;;;;;6273247;28;20053;-81
2023/09/12 02:39:46;;;;;;;25.17;21.60;;;;;;;;;;6281820;28;20075;-81
2023/09/12 02:42:48;;;;;;;27.85;22.13;;;;;;;;;;6282107;28;20045;-81
2023/09/12 02:45:51;;;;;;;28.25;22.77;;;;;;;;;;6281844;28;20049;-81
2023/09/12 02:48:53;;;;;;;30.55;22.05;;;;;;;;;;6271847;28;20053;-80
2023/09/12 02:52:02;;;;;;;27.90;22.48;;;;;;;;;;6281034;28;20249;-80
2023/09/12 02:55:08;;;;;;;27.85;21.90;;;;;;;;;;6255231;28;20053;-81
2023/09/12 02:58:10;;;;;;;25.05;21.20;;;;;;;;;;6235491;28;20273;-80
2023/09/12 03:01:17;;;;;;;25.23;20.83;;;;;;;;;;6265144;28;20060;-80
2023/09/12 03:04:21;;;;;;;27.30;22.02;;;;;;;;;;6260032;28;20053;-80
2023/09/12 03:07:23;;;;;;;27.88;22.73;;;;;;;;;;6253879;28;20037;-80
2023/09/12 03:10:25;;;;;;;25.40;21.17;;;;;;;;;;6254067;28;20132;-80
2023/09/12 03:13:27;;;;;;;29.90;22.88;;;;;;;;;;6254455;28;20060;-80
2023/09/12 03:16:30;;;;;;;28.20;22.98;;;;;;;;;;6240626;28;20273;-80
2023/09/12 03:19:32;;;;;;;34.55;24.98;;;;;;;;;;6254976;28;20432;-80
2023/09/12 03:22:37;;;;;;;28.92;24.40;;;;;;;;;;6255971;28;20088;-81
2023/09/12 03:25:39;;;;;;;28.70;24.45;;;;;;;;;;6255997;28;20096;-80
2023/09/12 03:28:42;;;;;;;33.80;25.60;;;;;;;;;;6254291;28;20053;-80
2023/09/12 03:31:45;;;;;;;32.03;25.77;;;;;;;;;;6256418;28;20045;-80
2023/09/12 03:34:46;;;;;;;29.27;24.17;;;;;;;;;;6272569;28;20041;-80
2023/09/12 03:37:48;;;;;;;32.33;23.95;;;;;;;;;;6280372;28;20119;-80
2023/09/12 03:40:50;;;;;;;28.52;22.42;;;;;;;;;;6280685;28;20049;-80
2023/09/12 03:43:53;;;;;;;28.95;23.35;;;;;;;;;;6278468;28;20055;-80
2023/09/12 03:46:58;;;;;;;29.35;24.05;;;;;;;;;;6279082;28;20353;-81
2023/09/12 03:49:59;;;;;;;29.30;23.27;;;;;;;;;;6279816;28;20056;-80
2023/09/12 03:53:01;;;;;;;29.20;23.33;;;;;;;;;;6277381;28;20055;-81
2023/09/12 03:56:03;;;;;;;26.92;22.77;;;;;;;;;;6278852;28;20084;-80
2023/09/12 03:59:05;;;;;;;29.20;23.83;;;;;;;;;;6278837;28;20403;-81
2023/09/12 04:02:15;;;;;;;28.58;22.15;;;;;;;;;;6280584;28;20061;-80
2023/09/12 04:05:23;;;;;;;30.25;24.95;;;;;;;;;;6277529;28;20059;-81
2023/09/12 04:08:32;;;;;;;29.98;23.98;;;;;;;;;;6258390;28;20339;-80
2023/09/12 04:11:35;;;;;;;32.22;23.90;;;;;;;;;;6263122;28;20052;-81
2023/09/12 04:14:37;;;;;;;29.25;23.98;;;;;;;;;;6239273;28;20257;-80
2023/09/12 04:17:40;;;;;;;28.52;23.10;;;;;;;;;;6251102;28;20080;-80
2023/09/12 04:20:42;;;;;;;30.55;24.25;;;;;;;;;;6251623;28;20060;-80
2023/09/12 04:23:45;;;;;;;26.85;22.25;;;;;;;;;;6255823;28;20076;-80
2023/09/12 04:26:46;;;;;;;28.03;22.43;;;;;;;;;;6271305;28;20043;-80
2023/09/12 04:29:48;;;;;;;29.42;23.05;;;;;;;;;;6278913;28;20044;-80
2023/09/12 04:32:51;;;;;;;28.58;22.90;;;;;;;;;;6267610;28;20045;-79
2023/09/12 04:35:53;;;;;;;32.08;23.70;;;;;;;;;;6246162;28;20057;-80
2023/09/12 04:38:55;;;;;;;26.48;21.05;;;;;;;;;;6252403;28;20063;-80
2023/09/12 04:42:03;;;;;;;33.22;23.23;;;;;;;;;;6278294;28;20053;-80
2023/09/12 04:45:05;;;;;;;28.65;23.60;;;;;;;;;;6292583;28;20068;-79
2023/09/12 04:48:09;;;;;;;28.65;23.33;;;;;;;;;;6277659;28;20045;-80
2023/09/12 04:51:10;;;;;;;33.22;23.40;;;;;;;;;;6268049;28;20049;-80
2023/09/12 04:54:12;;;;;;;32.35;24.48;;;;;;;;;;6283040;28;20091;-81
2023/09/12 04:57:14;;;;;;;33.05;26.05;;;;;;;;;;6298978;28;20060;-79
2023/09/12 05:00:22;;;;;;;31.52;24.08;;;;;;;;;;6298844;28;20102;-79
2023/09/12 05:03:25;;;;;;;28.10;23.02;;;;;;;;;;6287266;28;20048;-80
2023/09/12 05:06:27;;;;;;;;;;;;;;;;;;6299647;28;20068;-79
2023/09/12 05:09:29;;;;;;;27.65;23.40;;;;;;;;;;6272305;28;20146;-79
2023/09/12 05:12:31;;;;;;;33.03;23.60;;;;;;;;;;6280319;28;20057;-79
2023/09/12 05:15:32;;;;;;;30.70;24.30;;;;;;;;;;6288961;28;20052;-79
2023/09/12 05:18:36;;;;;;;33.20;25.77;;;;;;;;;;6296186;28;20040;-80
2023/09/12 05:21:40;;;;;;;;;;;;;;;;;;6277075;28;20055;-81
2023/09/12 05:24:42;;;;;;;31.27;24.02;;;;;;;;;;6274614;28;19917;-81
2023/09/12 05:27:44;;;;;;;35.35;25.15;;;;;;;;;;6282257;28;20044;-79
2023/09/12 05:30:46;;;;;;;35.55;28.20;;;;;;;;;;6274651;28;20060;-80
2023/09/12 05:33:50;;;;;;;39.05;28.73;;;;;;;;;;6297366;28;20095;-81
2023/09/12 05:36:51;;;;;;;33.33;27.35;;;;;;;;;;6282331;28;20049;-80
2023/09/12 05:39:53;;;;;;;36.30;27.77;;;;;;;;;;6291090;28;20067;-80
2023/09/12 05:42:55;;;;;;;33.70;27.25;;;;;;;;;;6298253;28;20048;-79
2023/09/12 05:45:58;;;;;;;36.90;29.42;;;;;;;;;;6298608;28;20058;-81
2023/09/12 05:49:01;;;;;;;39.97;30.97;;;;;;;;;;6298557;28;20356;-80
2023/09/12 05:52:03;;;;;;;45.85;31.77;;;;;;;;;;6297433;28;20470;-81
2023/09/12 05:55:06;;;;;;;37.42;29.35;;;;;;;;;;6299684;28;20052;-81
2023/09/12 05:58:07;;;;;;;47.47;34.40;;;;;;;;;;6297399;28;20048;-80
2023/09/12 06:01:09;;;;;;;41.97;32.45;;;;;;;;;;6302053;28;20139;-80
2023/09/12 06:04:13;;;;;;;43.85;30.20;;;;;;;;;;6300480;28;20054;-80
2023/09/12 06:07:16;;;;;;;;;;;;;;;;;;6302436;28;20111;-81
2023/09/12 06:10:22;;;;;;;37.08;28.77;;;;;;;;;;6301966;28;19925;-80
2023/09/12 06:13:24;;;;;;;37.55;29.58;;;;;;;;;;6299759;28;20270;-80
2023/09/12 06:16:26;;;;;;;37.53;29.80;;;;;;;;;;6302309;28;20244;-80
2023/09/12 06:19:30;;;;;;;35.50;28.23;;;;;;;;;;6301593;28;20065;-80
2023/09/12 06:22:32;;;;;;;40.60;29.58;;;;;;;;;;6300724;28;20151;-80
2023/09/12 06:25:35;;;;;;;41.00;30.20;;;;;;;;;;6291296;28;20119;-80
2023/09/12 06:28:37;;;;;;;38.67;30.63;;;;;;;;;;6300369;28;20056;-80
2023/09/12 06:31:40;;;;;;;36.75;29.17;;;;;;;;;;6299905;28;20083;-81
2023/09/12 06:34:44;;;;;;;35.80;27.15;;;;;;;;;;6300097;28;20090;-81
2023/09/12 06:37:47;;;;;;;37.03;28.67;;;;;;;;;;6300512;28;20048;-80
2023/09/12 06:40:49;;;;;;;41.50;29.33;;;;;;;;;;6303670;28;20049;-80
2023/09/12 06:43:50;;;;;;;38.83;27.90;;;;;;;;;;6305276;28;20118;-80
2023/09/12 06:46:52;;;;;;;38.05;27.17;;;;;;;;;;6304944;28;20331;-80
2023/09/12 06:49:55;;;;;;;35.40;27.67;;;;;;;;;;6304794;28;20052;-80
2023/09/12 06:52:57;;;;;;;37.78;28.38;;;;;;;;;;6304092;28;20060;-80
2023/09/12 06:55:59;;;;;;;38.28;27.45;;;;;;;;;;6306197;28;20045;-80
2023/09/12 06:59:04;;;;;;;36.40;28.33;;;;;;;;;;6289021;28;20055;-80
2023/09/12 07:02:06;;;;;;;32.05;25.30;;;;;;;;;;6287281;28;20333;-80
2023/09/12 07:05:09;;;;;;;38.13;28.30;;;;;;;;;;6267307;28;20292;-80
2023/09/12 07:08:11;;;;;;;33.10;26.77;;;;;;;;;;6274519;28;20048;-80
2023/09/12 07:11:13;;;;;;;37.30;26.50;;;;;;;;;;6278198;28;20057;-79
2023/09/12 07:14:15;;;;;;;37.58;28.40;;;;;;;;;;6268239;28;20080;-80
2023/09/12 07:17:17;;;;;;;32.90;26.35;;;;;;;;;;6265181;28;20325;-80
2023/09/12 07:20:20;;;;;;;33.35;24.17;;;;;;;;;;6297008;28;20055;-80
2023/09/12 07:23:22;;;;;;;;;;;;;;;;;;6279456;28;20389;-79
2023/09/12 07:26:27;;;;;;;29.17;22.45;;;;;;;;;;6276152;28;19921;-80
2023/09/12 07:29:29;;;;;;;30.08;21.45;;;;;;;;;;6279343;28;20193;-80
2023/09/12 07:32:31;;;;;;;27.92;22.70;;;;;;;;;;6278852;28;20115;-80
2023/09/12 07:35:34;;;;;;;30.05;23.02;;;;;;;;;;6277581;28;20041;-80
2023/09/12 07:38:37;;;;;;;29.38;22.17;;;;;;;;;;6278499;28;20065;-80
2023/09/12 07:41:44;;;;;;;;;;;;;;;;;;6292482;28;20056;-79
2023/09/12 07:44:46;;;;;;;27.98;23.88;;;;;;;;;;6304866;28;19924;-79
2023/09/12 07:47:48;;;;;;;28.45;23.55;;;;;;;;;;6289650;28;20053;-80
2023/09/12 07:50:51;;;;;;;32.08;23.42;;;;;;;;;;6274136;28;20076;-80
2023/09/12 07:53:53;;;;;;;28.33;22.42;;;;;;;;;;6280484;28;20056;-79
2023/09/12 07:56:55;;;;;;;33.70;24.15;;;;;;;;;;6277185;28;20353;-80
2023/09/12 07:59:57;;;;;;;29.88;25.10;;;;;;;;;;6278963;28;20052;-79
2023/09/12 08:02:59;;;;;;;30.67;23.23;;;;;;;;;;6286323;28;20052;-79
2023/09/12 08:06:02;;;;;;;32.20;23.38;;;;;;;;;;6286008;28;20052;-80
2023/09/12 08:09:04;;;;;;;28.25;22.13;;;;;;;;;;6277346;28;20365;-80
2023/09/12 08:12:07;;;;;;;27.42;23.17;;;;;;;;;;6261503;28;20065;-80
2023/09/12 08:15:10;;;;;;;;;;;;;;;;;;6300849;28;20075;-79
2023/09/12 08:18:11;;;;;;;28.55;24.98;;;;;;;;;;6302406;28;19979;-79
2023/09/12 08:21:15;;;;;;;38.70;28.00;;;;;;;;;;6297185;28;20128;-80
2023/09/12 08:24:16;;;;;;;32.35;26.33;;;;;;;;;;6301906;28;20059;-80
2023/09/12 08:27:18;;;;;;;33.10;25.45;;;;;;;;;;6301348;28;20214;-79
2023/09/12 08:30:20;;;;;;;31.50;24.63;;;;;;;;;;6289832;28;20053;-80
2023/09/12 08:33:22;;;;;;;28.60;25.08;;;;;;;;;;6304218;28;20052;-80
2023/09/12 08:36:25;;;;;;;28.20;24.20;;;;;;;;;;6277429;28;20132;-79
2023/09/12 08:39:28;;;;;;;30.10;25.98;;;;;;;;;;6270811;28;20387;-80
2023/09/12 08:42:32;;;;;;;27.52;23.48;;;;;;;;;;6274615;28;20059;-80
2023/09/12 08:45:33;;;;;;;34.05;25.95;;;;;;;;;;6275835;28;20280;-80
2023/09/12 08:48:40;;;;;;;28.40;22.43;;;;;;;;;;6278937;28;20054;-79
2023/09/12 08:51:44;;;;;;;24.52;21.35;;;;;;;;;;6288981;28;20537;-79
2023/09/12 08:54:46;;;;;;;28.83;24.10;;;;;;;;;;6275271;28;20057;-80
2023/09/12 08:57:49;;;;;;;30.10;25.63;;;;;;;;;;6291198;28;20288;-80
2023/09/12 09:00:51;;;;;;;33.83;26.33;;;;;;;;;;6300976;28;20221;-79
2023/09/12 09:03:53;;;;;;;;;;;;;;;;;;6301656;28;20056;-79
2023/09/12 09:06:58;;;;;;;52.47;21.58;;;;;;;;;;6301421;28;19931;-80
2023/09/12 09:10:01;;;;;;;25.83;18.85;;;;;;;;;;6284557;28;20082;-80
2023/09/12 09:13:06;;;;;;;26.83;20.65;;;;;;;;;;6299455;28;20123;-79
2023/09/12 09:16:12;;;;;;;27.67;24.67;;;;;;;;;;6277911;28;20164;-79
2023/09/12 09:19:16;;;;;;;34.90;26.17;;;;;;;;;;6298656;28;20056;-79
2023/09/12 09:22:19;;;;;;;31.17;25.92;;;;;;;;;;6301573;28;20295;-80
2023/09/12 09:25:21;;;;;;;34.70;23.58;;;;;;;;;;6290695;28;20049;-79
2023/09/12 09:28:24;;;;;;;36.03;27.00;;;;;;;;;;6275039;28;20045;-79
2023/09/12 09:31:26;;;;;;;27.95;23.83;;;;;;;;;;6267135;28;20060;-77
2023/09/12 09:34:29;;;;;;;27.35;23.73;;;;;;;;;;6276808;28;20099;-80
2023/09/12 09:37:32;;;;;;;22.13;16.92;;;;;;;;;;6276649;28;20053;-79
2023/09/12 09:40:35;;;;;;;24.15;16.00;;;;;;;;;;6278589;28;20057;-79
2023/09/12 09:43:37;;;;;;;22.00;16.27;;;;;;;;;;6275448;28;20045;-80
2023/09/12 09:46:39;;;;;;;21.45;16.80;;;;;;;;;;6276734;28;20061;-79
2023/09/12 09:49:41;;;;;;;18.80;16.85;;;;;;;;;;6282083;28;20053;-79
2023/09/12 09:52:45;;;;;;;19.25;14.95;;;;;;;;;;6279948;28;20052;-80
2023/09/12 09:55:47;;;;;;;15.98;11.52;;;;;;;;;;6268973;28;20048;-79
2023/09/12 09:58:50;;;;;;;16.58;13.00;;;;;;;;;;6277554;28;20083;-79
2023/09/12 10:01:53;;;;;;;8.85;7.78;;;;;;;;;;6294257;28;20220;-79
2023/09/12 10:05:07;;;;;;;8.20;7.35;;;;;;;;;;6288168;28;20057;-79
2023/09/12 10:08:10;;;;;;;10.25;7.78;;;;;;;;;;6275955;28;20064;-79
2023/09/12 10:11:21;;;;;;;8.25;6.85;;;;;;;;;;6275821;28;20068;-79
2023/09/12 10:14:24;;;;;;;11.23;6.78;;;;;;;;;;6269496;28;20060;-79
2023/09/12 10:17:30;;;;;;;10.15;6.22;;;;;;;;;;6280818;28;20044;-79
2023/09/12 10:20:49;;;;;;;7.50;6.70;;;;;;;;;;6283728;28;20062;-80
2023/09/12 10:23:59;;;;;;;6.70;6.00;;;;;;;;;;6283440;28;20053;-80
2023/09/12 10:27:04;;;;;;;11.13;7.50;;;;;;;;;;6263564;28;20049;-79
2023/09/12 10:30:21;;;;;;;9.32;7.20;;;;;;;;;;6281401;28;20258;-79
2023/09/12 10:33:23;;;;;;;7.50;6.72;;;;;;;;;;6293160;28;20091;-79
2023/09/12 10:36:39;;;;;;;9.93;7.28;;;;;;;;;;6259775;28;20473;-79
2023/09/12 10:40:07;;;;;;;8.70;7.13;;;;;;;;;;6303863;28;20305;-80
2023/09/12 10:43:12;;;;;;;8.13;7.28;;;;;;;;;;6289919;28;20057;-79
2023/09/12 10:46:14;;;;;;;10.90;7.70;;;;;;;;;;6303795;28;20306;-79
2023/09/12 10:49:25;;;;;;;10.68;7.85;;;;;;;;;;6304727;28;20048;-79
2023/09/12 10:52:28;;;;;;;10.52;8.02;;;;;;;;;;6293356;28;20355;-79
2023/09/12 10:55:31;;;;;;;8.80;7.80;;;;;;;;;;6286305;28;20048;-78
2023/09/12 10:58:33;;;;;;;8.68;7.15;;;;;;;;;;6304670;28;20055;-79
2023/09/12 11:01:36;;;;;;;7.82;6.25;;;;;;;;;;6304118;28;20055;-79
2023/09/12 11:04:38;;;;;;;9.00;8.10;;;;;;;;;;6305287;28;20120;-79
2023/09/12 11:07:51;;;;;;;12.45;7.72;;;;;;;;;;6301877;28;20225;-80
2023/09/12 11:11:21;;;;;;;8.55;7.28;;;;;;;;;;6303269;28;20129;-80
2023/09/12 11:14:24;;;;;;;10.18;7.95;;;;;;;;;;6294347;28;20052;-79
2023/09/12 11:17:27;;;;;;;10.93;7.90;;;;;;;;;;6303269;28;20048;-79
2023/09/12 11:20:52;;;;;;;13.13;7.47;;;;;;;;;;6287814;28;20279;-79
2023/09/12 11:23:58;;;;;;;7.97;7.18;;;;;;;;;;6295826;28;20068;-79
2023/09/12 11:27:05;;;;;;;12.48;7.20;;;;;;;;;;6303334;28;20048;-79
2023/09/12 11:30:07;;;;;;;7.90;7.10;;;;;;;;;;6302419;28;20063;-79
2023/09/12 11:33:12;;;;;;;7.85;7.00;;;;;;;;;;6303058;28;20048;-79
2023/09/12 11:36:20;;;;;;;11.18;7.18;;;;;;;;;;6299540;28;20059;-79
2023/09/12 11:39:25;;;;;;;11.35;7.00;;;;;;;;;;6275292;28;20072;-79
2023/09/12 11:42:31;;;;;;;8.18;7.18;;;;;;;;;;6278226;28;20071;-79
2023/09/12 11:45:34;;;;;;;11.18;6.97;;;;;;;;;;6277047;28;20249;-79
2023/09/12 11:48:38;;;;;;;8.27;7.05;;;;;;;;;;6277652;28;20344;-79
2023/09/12 11:51:48;;;;;;;10.45;6.05;;;;;;;;;;6275452;28;20190;-79
2023/09/12 11:55:23;;;;;;;6.50;5.20;;;;;;;;;;6274175;28;20272;-79
2023/09/12 11:58:28;;;;;;;11.18;5.60;;;;;;;;;;6258355;28;20076;-79
2023/09/12 12:01:31;;;;;;;7.15;5.57;;;;;;;;;;6275290;28;20056;-79
2023/09/12 12:04:57;;;;;;;7.55;5.50;;;;;;;;;;6275390;28;20053;-79
2023/09/12 12:08:08;;;;;;;6.82;5.28;;;;;;;;;;6276177;28;20048;-79
2023/09/12 12:11:11;;;;;;;8.32;5.70;;;;;;;;;;6276971;28;20056;-79
2023/09/12 12:14:15;;;;;;;;;;;;;;;;;;6269183;28;20248;-79
2023/09/12 12:17:21;;;;;;;5.65;5.13;;;;;;;;;;6265347;28;19917;-80
2023/09/12 12:20:33;;;;;;;6.07;5.40;;;;;;;;;;6273350;28;20049;-79
2023/09/12 12:23:35;;;;;;;6.38;5.30;;;;;;;;;;6277884;28;20269;-79
2023/09/12 12:26:46;;;;;;;;;;;;;;;;;;6272178;28;20147;-79
2023/09/12 12:30:14;;;;;;;7.10;4.95;;;;;;;;;;6283720;28;19916;-80
2023/09/12 12:33:22;;;;;;;9.05;5.30;;;;;;;;;;6256111;28;20056;-79
2023/09/12 12:39:56;;;;;;;6.68;5.25;;;;;;;;;;6273397;28;20245;-79
2023/09/12 12:43:01;;;;;;;6.05;5.45;;;;;;;;;;6253538;28;20685;-79
2023/09/12 12:53:07;;;;;;;7.93;4.95;;;;;;;;;;6258085;28;20059;-79
2023/09/12 12:56:35;;;;;;;6.50;4.78;;;;;;;;;;6265961;28;20061;-80
2023/09/12 12:59:38;;;;;;;5.22;4.70;;;;;;;;;;6272878;28;20348;-79
2023/09/12 13:02:42;;;;;;;6.43;5.25;;;;;;;;;;6276018;28;20068;-79
2023/09/12 13:06:35;;;;;;;8.75;5.43;;;;;;;;;;6276798;28;20044;-79
2023/09/12 13:09:42;;;;;;;;;;;;;;;;;;6266346;28;20052;-80
2023/09/12 13:16:05;;;;;;;5.45;4.95;;;;;;;;;;6251444;28;20057;-80
2023/09/12 13:19:16;;;;;;;8.40;5.10;;;;;;;;;;6276272;28;20063;-81
2023/09/12 13:30:48;;;;;;;9.13;5.30;;;;;;;;;;5975783;29;20065;-80
2023/09/12 13:33:50;;;;;;;;;;;;;;;;;;5996278;29;20107;-79
2023/09/12 13:59:11;;;;;;;;;;;;;;;;;;;;;
2023/09/12 14:34:45;;;;;;;6.95;5.10;;;;;;;;;;5981220;29;20061;-79
2023/09/12 14:57:35;;;;;;;7.10;5.45;;;;;;;;;;6086635;29;20055;-80
2023/09/12 15:00:41;;;;;;;9.88;5.60;;;;;;;;;;6100171;29;20075;-80
2023/09/12 15:03:43;;;;;;;10.68;6.00;;;;;;;;;;6137657;28;20159;-80
2023/09/12 15:06:45;;;;;;;6.63;5.70;;;;;;;;;;6190986;28;20054;-79
2023/09/12 15:09:54;;;;;;;10.77;5.40;;;;;;;;;;6200397;28;20293;-80
2023/09/12 15:12:58;;;;;;;7.63;5.85;;;;;;;;;;6203105;28;20085;-79
2023/09/12 15:16:09;;;;;;;7.35;5.55;;;;;;;;;;6203881;28;20754;-78
2023/09/12 15:19:32;;;;;;;5.70;5.20;;;;;;;;;;6225327;28;20058;-79
2023/09/12 15:22:34;;;;;;;8.20;5.97;;;;;;;;;;6225614;28;20799;-79
2023/09/12 15:28:59;;;;;;;6.30;5.70;;;;;;;;;;6282419;28;20070;-79
2023/09/12 15:32:29;;;;;;;6.63;5.65;;;;;;;;;;6296338;28;20082;-79
2023/09/12 15:39:29;;;;;;;8.27;6.13;;;;;;;;;;6160451;28;20105;-79
2023/09/12 15:46:11;;;;;;;7.32;5.65;;;;;;;;;;6144556;28;20133;-79
2023/09/12 15:52:36;;;;;;;9.10;5.85;;;;;;;;;;6124886;29;20047;-78
2023/09/12 15:55:38;;;;;;;6.57;5.57;;;;;;;;;;6129017;29;20259;-78
2023/09/12 15:58:46;;;;;;;;;;;;;;;;;;6130472;29;20058;-79
2023/09/12 16:01:50;;;;;;;6.97;5.82;;;;;;;;;;6124486;29;19926;-78
2023/09/12 16:04:53;;;;;;;6.50;5.60;;;;;;;;;;6127485;29;20082;-80
2023/09/12 16:07:58;;;;;;;5.95;5.35;;;;;;;;;;6126922;29;20111;-81
2023/09/12 16:11:03;;;;;;;6.40;5.80;;;;;;;;;;6154164;28;20055;-80
2023/09/12 16:14:34;;;;;;;8.25;5.50;;;;;;;;;;6174123;28;20064;-80
2023/09/12 16:17:42;;;;;;;9.13;6.50;;;;;;;;;;6186933;28;20104;-80
2023/09/12 16:20:44;;;;;;;12.18;5.85;;;;;;;;;;6200780;28;20104;-80
2023/09/12 16:23:46;;;;;;;7.07;5.85;;;;;;;;;;6241560;28;20892;-80
2023/09/12 16:27:07;;;;;;;7.15;5.70;;;;;;;;;;6272466;28;20095;-80
2023/09/12 16:30:12;;;;;;;7.07;5.40;;;;;;;;;;6275877;28;20053;-80
2023/09/12 16:33:16;;;;;;;7.15;6.18;;;;;;;;;;6276249;28;20064;-79
2023/09/12 16:36:20;;;;;;;11.48;6.38;;;;;;;;;;6274749;28;20116;-79
2023/09/12 16:39:23;;;;;;;8.98;6.20;;;;;;;;;;6273487;28;20056;-79
2023/09/12 16:42:30;;;;;;;7.22;6.00;;;;;;;;;;6289815;28;20037;-79
2023/09/12 16:45:32;;;;;;;7.15;6.05;;;;;;;;;;6301086;28;20106;-80
2023/09/12 16:48:35;;;;;;;9.70;6.32;;;;;;;;;;6301147;28;20325;-80
2023/09/12 16:51:37;;;;;;;13.15;6.07;;;;;;;;;;6301030;28;20202;-79
2023/09/12 16:54:39;;;;;;;17.50;7.13;;;;;;;;;;6299019;28;20509;-80
2023/09/12 16:57:44;;;;;;;14.75;7.13;;;;;;;;;;6301806;28;20127;-79
2023/09/12 17:00:46;;;;;;;8.20;6.93;;;;;;;;;;6298757;28;20608;-79
2023/09/12 17:03:59;;;;;;;11.90;6.60;;;;;;;;;;6302826;28;20325;-80
2023/09/12 17:07:00;;;;;;;;;;;;;;;;;;6301602;28;20075;-79
2023/09/12 17:10:02;;;;;;;6.90;6.20;;;;;;;;;;6300671;28;19946;-80
2023/09/12 17:13:04;;;;;;;6.83;6.13;;;;;;;;;;6302396;28;20062;-79
2023/09/12 17:16:06;;;;;;;8.10;6.55;;;;;;;;;;6299670;28;20155;-79
2023/09/12 17:19:13;;;;;;;8.05;6.75;;;;;;;;;;6302241;28;20056;-80
2023/09/12 17:22:15;;;;;;;7.38;6.05;;;;;;;;;;6280779;28;20120;-80
2023/09/12 17:25:17;;;;;;;7.50;6.67;;;;;;;;;;6298097;28;20053;-79
2023/09/12 17:28:19;;;;;;;13.38;6.40;;;;;;;;;;6296694;28;20418;-77
2023/09/12 17:31:21;;;;;;;10.40;6.50;;;;;;;;;;6295711;28;20112;-80
2023/09/12 17:34:40;;;;;;;7.97;7.17;;;;;;;;;;6295083;28;20060;-78
2023/09/12 17:37:42;;;;;;;7.65;6.82;;;;;;;;;;6296878;28;20470;-80
2023/09/12 17:40:45;;;;;;;8.30;6.78;;;;;;;;;;6298400;28;20202;-78
2023/09/12 17:43:47;;;;;;;13.20;7.50;;;;;;;;;;6300005;28;20067;-79
2023/09/12 17:46:49;;;;;;;10.13;6.47;;;;;;;;;;6295479;28;20052;-81
2023/09/12 17:49:52;;;;;;;9.35;6.80;;;;;;;;;;6301212;28;20368;-78
2023/09/12 17:52:57;;;;;;;9.40;7.13;;;;;;;;;;6291007;28;20087;-85
2023/09/12 17:56:16;;;;;;;7.75;5.70;;;;;;;;;;6279469;28;20083;-82
2023/09/12 17:59:26;;;;;;;8.60;4.60;;;;;;;;;;6266809;28;20325;-82
2023/09/12 18:17:53;;;;;;;7.93;4.80;;;;;;;;;;6203078;28;20046;-82
2023/09/12 18:21:40;;;;;;;12.43;4.80;;;;;;;;;;6195330;28;20068;-85
2023/09/12 18:25:09;;;;;;;5.72;4.72;;;;;;;;;;6172903;28;20054;-83
2023/09/12 18:28:51;;;;;;;8.80;5.10;;;;;;;;;;6178093;28;20059;-94
2023/09/12 19:03:20;;;;;;;9.18;4.68;;;;;;;;;;6960480;22;20605;-81
2023/09/12 19:06:22;;;;;;;6.45;4.32;;;;;;;;;;6226983;28;20053;-81
2023/09/12 19:09:32;;;;;;;6.10;4.65;;;;;;;;;;6221044;28;20050;-81
2023/09/12 19:12:34;;;;;;;5.75;4.35;;;;;;;;;;6223215;28;20768;-81
2023/09/12 19:16:10;;;;;;;5.57;4.32;;;;;;;;;;6217629;28;20042;-81
2023/09/12 19:23:52;;;;;;;5.55;4.18;;;;;;;;;;6090125;29;20119;-81
2023/09/12 19:31:15;;;;;;;8.88;5.13;;;;;;;;;;6052431;29;20331;-80
2023/09/12 19:34:44;;;;;;;;;;;;;;;;;;;;;
2023/09/12 19:41:36;;;;;;;5.00;4.50;;;;;;;;;;6082597;29;20261;-84
2023/09/12 20:35:00;;;;;;;5.63;4.68;;;;;;;;;;5657792;31;20049;-83
2023/09/12 20:42:53;;;;;;;5.53;4.55;;;;;;;;;;5841896;29;20083;-84
